sensor_id;sensor_type;location;lat;lon;timestamp;pressure;altitude;pressure_sealevel;temperature;humidity
6218;BME280;3142;48.206;11.550;2022-11-06T00:00:30;96200.09;;;7.99;84.61
6218;BME280;3142;48.206;11.550;2022-11-06T00:02:57;96195.88;;;7.98;84.80
6218;BME280;3142;48.206;11.550;2022-11-06T00:05:24;96200.75;;;7.93;84.40
6218;BME280;3142;48.206;11.550;2022-11-06T00:08:09;96195.53;;;7.93;84.47
6218;BME280;3142;48.206;11.550;2022-11-06T00:10:36;96196.88;;;7.89;84.78
6218;BME280;3142;48.206;11.550;2022-11-06T00:13:02;96199.03;;;7.77;84.27
6218;BME280;3142;48.206;11.550;2022-11-06T00:15:29;96203.41;;;7.85;84.18
6218;BME280;3142;48.206;11.550;2022-11-06T00:17:55;96199.66;;;7.87;84.32
6218;BME280;3142;48.206;11.550;2022-11-06T00:20:22;96203.88;;;7.88;83.73
6218;BME280;3142;48.206;11.550;2022-11-06T00:22:48;96200.19;;;7.83;84.72
6218;BME280;3142;48.206;11.550;2022-11-06T00:25:16;96196.75;;;7.82;84.27
6218;BME280;3142;48.206;11.550;2022-11-06T00:27:43;96191.56;;;7.74;84.79
6218;BME280;3142;48.206;11.550;2022-11-06T00:30:10;96181.16;;;7.74;83.75
6218;BME280;3142;48.206;11.550;2022-11-06T00:32:37;96187.00;;;7.76;83.80
6218;BME280;3142;48.206;11.550;2022-11-06T00:35:04;96181.63;;;7.78;84.76
6218;BME280;3142;48.206;11.550;2022-11-06T00:37:32;96181.63;;;7.78;84.62
6218;BME280;3142;48.206;11.550;2022-11-06T00:39:58;96175.25;;;7.80;84.19
6218;BME280;3142;48.206;11.550;2022-11-06T00:42:26;96180.31;;;7.82;83.56
6218;BME280;3142;48.206;11.550;2022-11-06T00:44:53;96183.75;;;7.82;84.26
6218;BME280;3142;48.206;11.550;2022-11-06T00:47:19;96176.25;;;7.79;84.08
6218;BME280;3142;48.206;11.550;2022-11-06T00:49:45;96178.22;;;7.77;83.76
6218;BME280;3142;48.206;11.550;2022-11-06T00:52:12;96181.00;;;7.67;84.57
6218;BME280;3142;48.206;11.550;2022-11-06T00:54:38;96182.50;;;7.70;83.95
6218;BME280;3142;48.206;11.550;2022-11-06T00:57:05;96187.69;;;7.70;83.71
6218;BME280;3142;48.206;11.550;2022-11-06T00:59:33;96193.41;;;7.65;83.60
6218;BME280;3142;48.206;11.550;2022-11-06T01:02:00;96193.41;;;7.65;83.72
6218;BME280;3142;48.206;11.550;2022-11-06T01:04:26;96186.56;;;7.64;84.27
6218;BME280;3142;48.206;11.550;2022-11-06T01:06:54;96181.53;;;7.63;83.91
6218;BME280;3142;48.206;11.550;2022-11-06T01:09:24;96187.38;;;7.65;83.83
6218;BME280;3142;48.206;11.550;2022-11-06T01:11:52;96186.91;;;7.61;83.68
6218;BME280;3142;48.206;11.550;2022-11-06T01:14:20;96182.50;;;7.62;84.40
6218;BME280;3142;48.206;11.550;2022-11-06T01:16:49;96177.00;;;7.57;83.34
6218;BME280;3142;48.206;11.550;2022-11-06T01:19:18;96167.91;;;7.53;83.48
6218;BME280;3142;48.206;11.550;2022-11-06T01:21:46;96166.78;;;7.55;84.46
6218;BME280;3142;48.206;11.550;2022-11-06T01:24:15;96168.69;;;7.53;83.77
6218;BME280;3142;48.206;11.550;2022-11-06T01:26:42;96160.41;;;7.58;84.83
6218;BME280;3142;48.206;11.550;2022-11-06T01:29:12;96155.66;;;7.61;84.75
6218;BME280;3142;48.206;11.550;2022-11-06T01:31:40;96156.31;;;7.63;83.91
6218;BME280;3142;48.206;11.550;2022-11-06T01:34:09;96160.41;;;7.58;83.56
6218;BME280;3142;48.206;11.550;2022-11-06T01:36:36;96162.03;;;7.59;84.05
6218;BME280;3142;48.206;11.550;2022-11-06T01:39:05;96145.59;;;7.58;84.66
6218;BME280;3142;48.206;11.550;2022-11-06T01:41:35;96140.94;;;7.46;84.90
6218;BME280;3142;48.206;11.550;2022-11-06T01:44:04;96148.59;;;7.39;85.26
6218;BME280;3142;48.206;11.550;2022-11-06T01:46:32;96141.59;;;7.39;84.29
6218;BME280;3142;48.206;11.550;2022-11-06T01:49:01;96146.16;;;7.37;84.71
6218;BME280;3142;48.206;11.550;2022-11-06T01:51:33;96146.03;;;7.31;84.55
6218;BME280;3142;48.206;11.550;2022-11-06T01:54:03;96143.72;;;7.36;85.24
6218;BME280;3142;48.206;11.550;2022-11-06T01:56:31;96140.47;;;7.34;84.59
6218;BME280;3142;48.206;11.550;2022-11-06T01:58:58;96136.28;;;7.25;85.15
6218;BME280;3142;48.206;11.550;2022-11-06T02:01:25;96136.28;;;7.25;85.31
6218;BME280;3142;48.206;11.550;2022-11-06T02:03:57;96141.53;;;7.17;84.54
6218;BME280;3142;48.206;11.550;2022-11-06T02:06:24;96141.53;;;7.08;85.40
6218;BME280;3142;48.206;11.550;2022-11-06T02:08:53;96144.47;;;7.13;85.72
6218;BME280;3142;48.206;11.550;2022-11-06T02:11:20;96132.91;;;7.16;85.24
6218;BME280;3142;48.206;11.550;2022-11-06T02:13:56;96137.13;;;7.17;85.81
6218;BME280;3142;48.206;11.550;2022-11-06T02:16:32;96138.06;;;7.24;85.51
6218;BME280;3142;48.206;11.550;2022-11-06T02:19:20;96139.22;;;7.30;85.24
6218;BME280;3142;48.206;11.550;2022-11-06T02:22:03;96136.78;;;7.28;85.55
6218;BME280;3142;48.206;11.550;2022-11-06T02:24:46;96129.78;;;7.29;85.56
6218;BME280;3142;48.206;11.550;2022-11-06T02:27:17;96126.03;;;7.31;85.14
6218;BME280;3142;48.206;11.550;2022-11-06T02:29:49;96128.34;;;7.18;84.92
6218;BME280;3142;48.206;11.550;2022-11-06T02:32:24;96124.94;;;7.18;84.87
6218;BME280;3142;48.206;11.550;2022-11-06T02:34:54;96122.19;;;7.11;84.78
6218;BME280;3142;48.206;11.550;2022-11-06T02:37:29;96120.59;;;7.02;85.18
6218;BME280;3142;48.206;11.550;2022-11-06T02:40:02;96125.00;;;6.93;85.50
6218;BME280;3142;48.206;11.550;2022-11-06T02:42:35;96125.16;;;6.83;86.23
6218;BME280;3142;48.206;11.550;2022-11-06T02:45:04;96126.97;;;6.91;85.71
6218;BME280;3142;48.206;11.550;2022-11-06T02:47:33;96118.03;;;6.86;85.92
6218;BME280;3142;48.206;11.550;2022-11-06T02:50:04;96110.72;;;6.81;86.59
6218;BME280;3142;48.206;11.550;2022-11-06T02:52:33;96116.09;;;6.71;86.71
6218;BME280;3142;48.206;11.550;2022-11-06T02:55:06;96106.88;;;6.61;86.90
6218;BME280;3142;48.206;11.550;2022-11-06T02:57:37;96103.78;;;6.49;87.60
6218;BME280;3142;48.206;11.550;2022-11-06T03:00:09;96100.22;;;6.50;87.63
6218;BME280;3142;48.206;11.550;2022-11-06T03:02:39;96100.53;;;6.55;88.33
6218;BME280;3142;48.206;11.550;2022-11-06T03:05:11;96104.56;;;6.58;88.10
6218;BME280;3142;48.206;11.550;2022-11-06T03:07:42;96105.22;;;6.68;87.89
6218;BME280;3142;48.206;11.550;2022-11-06T03:10:10;96108.47;;;6.70;87.59
6218;BME280;3142;48.206;11.550;2022-11-06T03:12:48;96099.84;;;6.69;87.83
6218;BME280;3142;48.206;11.550;2022-11-06T03:15:21;96110.88;;;6.71;87.78
6218;BME280;3142;48.206;11.550;2022-11-06T03:17:51;96107.47;;;6.79;87.45
6218;BME280;3142;48.206;11.550;2022-11-06T03:20:25;96094.94;;;6.82;86.76
6218;BME280;3142;48.206;11.550;2022-11-06T03:22:57;96100.66;;;6.78;87.27
6218;BME280;3142;48.206;11.550;2022-11-06T03:25:27;96093.84;;;6.77;86.65
6218;BME280;3142;48.206;11.550;2022-11-06T03:28:02;96096.78;;;6.74;87.16
6218;BME280;3142;48.206;11.550;2022-11-06T03:30:33;96092.38;;;6.74;86.20
6218;BME280;3142;48.206;11.550;2022-11-06T03:33:06;96107.66;;;6.69;85.71
6218;BME280;3142;48.206;11.550;2022-11-06T03:35:39;96109.47;;;6.61;85.17
6218;BME280;3142;48.206;11.550;2022-11-06T03:38:09;96110.75;;;6.57;84.06
6218;BME280;3142;48.206;11.550;2022-11-06T03:40:40;96112.25;;;6.59;84.12
6218;BME280;3142;48.206;11.550;2022-11-06T03:43:14;96107.19;;;6.49;83.41
6218;BME280;3142;48.206;11.550;2022-11-06T03:45:42;96108.19;;;6.40;82.85
6218;BME280;3142;48.206;11.550;2022-11-06T03:48:13;96101.84;;;6.35;83.23
6218;BME280;3142;48.206;11.550;2022-11-06T03:50:48;96105.75;;;6.31;82.98
6218;BME280;3142;48.206;11.550;2022-11-06T03:53:22;96109.00;;;6.41;82.36
6218;BME280;3142;48.206;11.550;2022-11-06T03:55:54;96111.41;;;6.42;82.62
6218;BME280;3142;48.206;11.550;2022-11-06T03:58:27;96108.50;;;6.37;81.74
6218;BME280;3142;48.206;11.550;2022-11-06T04:00:57;96101.22;;;6.33;82.67
6218;BME280;3142;48.206;11.550;2022-11-06T04:03:31;96100.25;;;6.34;81.86
6218;BME280;3142;48.206;11.550;2022-11-06T04:06:04;96099.25;;;6.27;82.00
6218;BME280;3142;48.206;11.550;2022-11-06T04:08:33;96092.13;;;6.20;82.08
6218;BME280;3142;48.206;11.550;2022-11-06T04:11:19;96100.72;;;6.13;82.18
6218;BME280;3142;48.206;11.550;2022-11-06T04:14:07;96091.63;;;6.09;82.19
6218;BME280;3142;48.206;11.550;2022-11-06T04:16:36;96089.19;;;6.07;82.04
6218;BME280;3142;48.206;11.550;2022-11-06T04:19:05;96087.25;;;6.09;82.46
6218;BME280;3142;48.206;11.550;2022-11-06T04:21:42;96091.13;;;6.13;82.69
6218;BME280;3142;48.206;11.550;2022-11-06T04:24:24;96097.31;;;6.20;81.69
6218;BME280;3142;48.206;11.550;2022-11-06T04:27:22;96093.25;;;6.26;81.38
6218;BME280;3142;48.206;11.550;2022-11-06T04:30:06;96091.63;;;6.25;80.24
6218;BME280;3142;48.206;11.550;2022-11-06T04:32:45;96093.25;;;6.18;80.82
6218;BME280;3142;48.206;11.550;2022-11-06T04:35:20;96089.34;;;6.14;80.11
6218;BME280;3142;48.206;11.550;2022-11-06T04:37:55;96086.28;;;6.10;80.21
6218;BME280;3142;48.206;11.550;2022-11-06T04:40:26;96086.59;;;6.07;79.11
6218;BME280;3142;48.206;11.550;2022-11-06T04:42:59;96075.56;;;6.05;79.79
6218;BME280;3142;48.206;11.550;2022-11-06T04:45:31;96072.16;;;5.97;79.83
6218;BME280;3142;48.206;11.550;2022-11-06T04:48:00;96077.84;;;5.92;79.70
6218;BME280;3142;48.206;11.550;2022-11-06T04:50:30;96073.63;;;5.91;79.93
6218;BME280;3142;48.206;11.550;2022-11-06T04:52:59;96068.56;;;5.89;80.42
6218;BME280;3142;48.206;11.550;2022-11-06T04:55:28;96067.94;;;5.96;79.87
6218;BME280;3142;48.206;11.550;2022-11-06T04:57:54;96068.25;;;6.01;79.61
6218;BME280;3142;48.206;11.550;2022-11-06T05:00:21;96072.31;;;5.95;79.31
6218;BME280;3142;48.206;11.550;2022-11-06T05:02:49;96074.56;;;5.98;79.33
6218;BME280;3142;48.206;11.550;2022-11-06T05:05:15;96076.47;;;5.88;79.21
6218;BME280;3142;48.206;11.550;2022-11-06T05:07:42;96078.09;;;5.73;79.31
6218;BME280;3142;48.206;11.550;2022-11-06T05:10:08;96072.91;;;5.64;79.45
6218;BME280;3142;48.206;11.550;2022-11-06T05:12:35;96079.06;;;5.63;79.20
6218;BME280;3142;48.206;11.550;2022-11-06T05:15:01;96069.00;;;5.69;79.03
6218;BME280;3142;48.206;11.550;2022-11-06T05:17:28;96069.78;;;5.61;79.58
6218;BME280;3142;48.206;11.550;2022-11-06T05:19:57;96066.72;;;5.57;79.01
6218;BME280;3142;48.206;11.550;2022-11-06T05:22:23;96063.47;;;5.55;79.87
6218;BME280;3142;48.206;11.550;2022-11-06T05:25:07;96051.63;;;5.53;79.80
6218;BME280;3142;48.206;11.550;2022-11-06T05:27:34;96049.69;;;5.55;79.95
6218;BME280;3142;48.206;11.550;2022-11-06T05:30:00;96049.06;;;5.69;80.14
6218;BME280;3142;48.206;11.550;2022-11-06T05:32:27;96040.28;;;5.70;80.49
6218;BME280;3142;48.206;11.550;2022-11-06T05:34:54;96039.50;;;5.78;80.92
6218;BME280;3142;48.206;11.550;2022-11-06T05:37:22;96040.31;;;5.78;81.07
6218;BME280;3142;48.206;11.550;2022-11-06T05:39:48;96043.38;;;5.74;80.92
6218;BME280;3142;48.206;11.550;2022-11-06T05:42:15;96047.59;;;5.67;80.75
6218;BME280;3142;48.206;11.550;2022-11-06T05:44:41;96054.72;;;5.64;81.25
6218;BME280;3142;48.206;11.550;2022-11-06T05:47:08;96052.28;;;5.71;80.52
6218;BME280;3142;48.206;11.550;2022-11-06T05:49:34;96056.84;;;5.69;80.10
6218;BME280;3142;48.206;11.550;2022-11-06T05:52:01;96050.84;;;5.69;79.03
6218;BME280;3142;48.206;11.550;2022-11-06T05:54:29;96056.19;;;5.67;78.41
6218;BME280;3142;48.206;11.550;2022-11-06T05:56:55;96044.16;;;5.58;78.75
6218;BME280;3142;48.206;11.550;2022-11-06T05:59:21;96043.19;;;5.59;78.13
6218;BME280;3142;48.206;11.550;2022-11-06T06:01:48;96037.19;;;5.50;77.90
6218;BME280;3142;48.206;11.550;2022-11-06T06:04:14;96038.31;;;5.40;78.54
6218;BME280;3142;48.206;11.550;2022-11-06T06:06:41;96035.88;;;5.38;78.49
6218;BME280;3142;48.206;11.550;2022-11-06T06:09:08;96027.56;;;5.26;78.32
6218;BME280;3142;48.206;11.550;2022-11-06T06:11:36;96025.63;;;5.28;78.79
6218;BME280;3142;48.206;11.550;2022-11-06T06:14:02;96018.50;;;5.22;78.70
6218;BME280;3142;48.206;11.550;2022-11-06T06:16:29;96018.50;;;5.22;78.81
6218;BME280;3142;48.206;11.550;2022-11-06T06:18:55;96017.03;;;5.28;79.47
6218;BME280;3142;48.206;11.550;2022-11-06T06:21:22;96011.84;;;5.28;80.88
6218;BME280;3142;48.206;11.550;2022-11-06T06:23:48;96020.94;;;5.24;81.96
6218;BME280;3142;48.206;11.550;2022-11-06T06:26:15;96016.53;;;5.24;82.09
6218;BME280;3142;48.206;11.550;2022-11-06T06:28:46;96017.69;;;5.22;82.41
6218;BME280;3142;48.206;11.550;2022-11-06T06:31:13;96007.78;;;5.33;82.29
6218;BME280;3142;48.206;11.550;2022-11-06T06:33:39;95997.13;;;5.53;81.42
6218;BME280;3142;48.206;11.550;2022-11-06T06:36:07;96002.16;;;5.71;80.87
6218;BME280;3142;48.206;11.550;2022-11-06T06:38:33;96005.09;;;5.76;81.00
6218;BME280;3142;48.206;11.550;2022-11-06T06:41:00;96003.13;;;5.86;81.48
6218;BME280;3142;48.206;11.550;2022-11-06T06:43:27;95998.78;;;5.94;81.14
6218;BME280;3142;48.206;11.550;2022-11-06T06:45:57;95994.41;;;5.95;82.01
6218;BME280;3142;48.206;11.550;2022-11-06T06:48:24;95999.59;;;6.03;81.94
6218;BME280;3142;48.206;11.550;2022-11-06T06:50:50;96002.19;;;6.19;81.86
6218;BME280;3142;48.206;11.550;2022-11-06T06:53:17;96005.56;;;6.36;81.61
6218;BME280;3142;48.206;11.550;2022-11-06T06:55:43;96000.00;;;6.47;81.07
6218;BME280;3142;48.206;11.550;2022-11-06T06:58:10;95995.91;;;6.53;80.84
6218;BME280;3142;48.206;11.550;2022-11-06T07:00:36;96001.38;;;6.74;80.77
6218;BME280;3142;48.206;11.550;2022-11-06T07:03:04;95996.63;;;6.86;80.40
6218;BME280;3142;48.206;11.550;2022-11-06T07:05:31;96002.59;;;6.95;80.67
6218;BME280;3142;48.206;11.550;2022-11-06T07:07:57;95998.97;;;7.04;80.06
6218;BME280;3142;48.206;11.550;2022-11-06T07:10:24;95998.06;;;7.20;79.73
6218;BME280;3142;48.206;11.550;2022-11-06T07:12:50;95997.47;;;7.40;78.93
6218;BME280;3142;48.206;11.550;2022-11-06T07:15:17;96006.09;;;7.64;78.54
6218;BME280;3142;48.206;11.550;2022-11-06T07:17:43;96013.72;;;7.88;77.71
6218;BME280;3142;48.206;11.550;2022-11-06T07:20:11;96025.19;;;8.02;77.38
6218;BME280;3142;48.206;11.550;2022-11-06T07:22:38;96013.63;;;7.82;77.11
6218;BME280;3142;48.206;11.550;2022-11-06T07:25:05;96025.88;;;7.27;78.44
6218;BME280;3142;48.206;11.550;2022-11-06T07:27:32;96028.66;;;6.78;79.38
6218;BME280;3142;48.206;11.550;2022-11-06T07:29:58;96027.78;;;6.39;80.34
6218;BME280;3142;48.206;11.550;2022-11-06T07:32:25;96040.81;;;6.06;82.55
6218;BME280;3142;48.206;11.550;2022-11-06T07:34:52;96056.25;;;6.08;83.28
6218;BME280;3142;48.206;11.550;2022-11-06T07:37:19;96046.81;;;6.15;83.37
6218;BME280;3142;48.206;11.550;2022-11-06T07:39:46;96038.22;;;6.22;83.63
6218;BME280;3142;48.206;11.550;2022-11-06T07:42:12;96037.06;;;6.25;83.58
6218;BME280;3142;48.206;11.550;2022-11-06T07:44:39;96034.00;;;6.21;83.66
6218;BME280;3142;48.206;11.550;2022-11-06T07:47:05;96032.38;;;6.12;84.06
6218;BME280;3142;48.206;11.550;2022-11-06T07:49:32;96037.91;;;6.09;84.33
6218;BME280;3142;48.206;11.550;2022-11-06T07:51:58;96035.94;;;6.11;84.81
6218;BME280;3142;48.206;11.550;2022-11-06T07:54:26;96040.50;;;6.17;84.32
6218;BME280;3142;48.206;11.550;2022-11-06T07:56:53;96034.97;;;6.12;84.12
6218;BME280;3142;48.206;11.550;2022-11-06T07:59:19;96026.19;;;6.13;85.09
6218;BME280;3142;48.206;11.550;2022-11-06T08:01:46;96021.00;;;6.21;84.62
6218;BME280;3142;48.206;11.550;2022-11-06T08:04:12;96014.16;;;6.29;85.66
6218;BME280;3142;48.206;11.550;2022-11-06T08:06:38;96012.84;;;6.41;85.46
6218;BME280;3142;48.206;11.550;2022-11-06T08:09:06;96005.03;;;6.49;84.77
6218;BME280;3142;48.206;11.550;2022-11-06T08:11:34;95999.66;;;6.50;85.17
6218;BME280;3142;48.206;11.550;2022-11-06T08:14:01;96000.31;;;6.52;85.05
6218;BME280;3142;48.206;11.550;2022-11-06T08:16:27;95988.13;;;6.53;84.84
6218;BME280;3142;48.206;11.550;2022-11-06T08:18:54;95982.75;;;6.63;84.77
6218;BME280;3142;48.206;11.550;2022-11-06T08:21:21;95983.84;;;6.68;84.00
6218;BME280;3142;48.206;11.550;2022-11-06T08:23:47;95978.97;;;6.73;84.48
6218;BME280;3142;48.206;11.550;2022-11-06T08:26:14;95973.72;;;6.81;84.86
6218;BME280;3142;48.206;11.550;2022-11-06T08:28:42;95966.69;;;6.90;84.85
6218;BME280;3142;48.206;11.550;2022-11-06T08:31:09;95968.94;;;6.93;85.26
6218;BME280;3142;48.206;11.550;2022-11-06T08:33:37;95983.75;;;6.93;85.48
6218;BME280;3142;48.206;11.550;2022-11-06T08:36:05;95981.94;;;7.01;85.51
6218;BME280;3142;48.206;11.550;2022-11-06T08:38:32;95976.50;;;7.11;85.23
6218;BME280;3142;48.206;11.550;2022-11-06T08:41:03;95977.91;;;7.22;84.74
6218;BME280;3142;48.206;11.550;2022-11-06T08:43:29;95977.84;;;7.30;85.10
6218;BME280;3142;48.206;11.550;2022-11-06T08:45:58;95967.78;;;7.50;85.20
6218;BME280;3142;48.206;11.550;2022-11-06T08:48:24;95962.66;;;8.02;83.42
6218;BME280;3142;48.206;11.550;2022-11-06T08:50:51;95952.16;;;8.84;80.85
6218;BME280;3142;48.206;11.550;2022-11-06T08:53:18;95947.72;;;9.78;78.89
6218;BME280;3142;48.206;11.550;2022-11-06T08:55:44;95938.31;;;10.12;77.56
6218;BME280;3142;48.206;11.550;2022-11-06T08:58:10;95940.78;;;10.48;76.82
6218;BME280;3142;48.206;11.550;2022-11-06T09:00:38;95939.84;;;10.55;76.69
6218;BME280;3142;48.206;11.550;2022-11-06T09:03:08;95937.31;;;10.41;76.93
6218;BME280;3142;48.206;11.550;2022-11-06T09:05:38;95926.34;;;9.96;78.20
6218;BME280;3142;48.206;11.550;2022-11-06T09:08:05;95917.88;;;9.66;78.13
6218;BME280;3142;48.206;11.550;2022-11-06T09:10:32;95912.28;;;9.47;79.64
6218;BME280;3142;48.206;11.550;2022-11-06T09:12:59;95894.69;;;9.35;78.86
6218;BME280;3142;48.206;11.550;2022-11-06T09:15:25;95900.97;;;9.19;78.39
6218;BME280;3142;48.206;11.550;2022-11-06T09:17:52;95909.81;;;9.03;78.85
6218;BME280;3142;48.206;11.550;2022-11-06T09:20:21;95911.19;;;8.99;79.88
6218;BME280;3142;48.206;11.550;2022-11-06T09:22:49;95892.09;;;8.77;80.32
6218;BME280;3142;48.206;11.550;2022-11-06T09:25:15;95886.44;;;8.74;80.26
6218;BME280;3142;48.206;11.550;2022-11-06T09:27:42;95890.41;;;8.70;80.53
6218;BME280;3142;48.206;11.550;2022-11-06T09:30:10;95881.41;;;8.72;81.04
6218;BME280;3142;48.206;11.550;2022-11-06T09:32:38;95877.50;;;8.83;81.61
6218;BME280;3142;48.206;11.550;2022-11-06T09:35:05;95870.72;;;8.88;81.16
6218;BME280;3142;48.206;11.550;2022-11-06T09:37:33;95860.16;;;8.75;82.18
6218;BME280;3142;48.206;11.550;2022-11-06T09:39:59;95858.50;;;8.68;81.98
6218;BME280;3142;48.206;11.550;2022-11-06T09:42:37;95849.19;;;8.80;82.52
6218;BME280;3142;48.206;11.550;2022-11-06T09:45:11;95835.91;;;8.96;82.64
6218;BME280;3142;48.206;11.550;2022-11-06T09:47:42;95844.66;;;9.10;81.75
6218;BME280;3142;48.206;11.550;2022-11-06T09:50:16;95841.63;;;9.06;82.08
6218;BME280;3142;48.206;11.550;2022-11-06T09:52:49;95846.34;;;8.96;81.74
6218;BME280;3142;48.206;11.550;2022-11-06T09:55:19;95838.94;;;9.21;82.35
6218;BME280;3142;48.206;11.550;2022-11-06T09:57:50;95837.78;;;9.52;80.45
6218;BME280;3142;48.206;11.550;2022-11-06T10:00:17;95827.47;;;9.71;79.36
6218;BME280;3142;48.206;11.550;2022-11-06T10:02:47;95827.88;;;10.37;78.07
6218;BME280;3142;48.206;11.550;2022-11-06T10:05:22;95833.28;;;11.04;75.17
6218;BME280;3142;48.206;11.550;2022-11-06T10:07:52;95828.66;;;11.06;73.05
6218;BME280;3142;48.206;11.550;2022-11-06T10:10:26;95815.38;;;11.34;71.81
6218;BME280;3142;48.206;11.550;2022-11-06T10:13:03;95796.03;;;11.48;70.35
6218;BME280;3142;48.206;11.550;2022-11-06T10:15:34;95791.38;;;11.70;69.99
6218;BME280;3142;48.206;11.550;2022-11-06T10:18:08;95787.09;;;12.02;69.33
6218;BME280;3142;48.206;11.550;2022-11-06T10:20:42;95779.75;;;12.30;68.36
6218;BME280;3142;48.206;11.550;2022-11-06T10:23:18;95781.34;;;12.38;67.62
6218;BME280;3142;48.206;11.550;2022-11-06T10:25:57;95773.75;;;12.16;66.06
6218;BME280;3142;48.206;11.550;2022-11-06T10:28:52;95759.88;;;12.03;66.34
6218;BME280;3142;48.206;11.550;2022-11-06T10:31:29;95765.16;;;11.96;67.07
6218;BME280;3142;48.206;11.550;2022-11-06T10:34:00;95769.13;;;12.12;67.63
6218;BME280;3142;48.206;11.550;2022-11-06T10:36:33;95757.34;;;12.28;67.04
6218;BME280;3142;48.206;11.550;2022-11-06T10:39:02;95756.72;;;12.39;66.56
6218;BME280;3142;48.206;11.550;2022-11-06T10:41:32;95746.13;;;12.52;66.34
6218;BME280;3142;48.206;11.550;2022-11-06T10:44:02;95739.16;;;13.02;66.38
6218;BME280;3142;48.206;11.550;2022-11-06T10:46:34;95737.91;;;13.05;63.56
6218;BME280;3142;48.206;11.550;2022-11-06T10:49:05;95727.44;;;12.98;63.43
6218;BME280;3142;48.206;11.550;2022-11-06T10:51:50;95733.28;;;13.00;61.94
6218;BME280;3142;48.206;11.550;2022-11-06T10:54:34;95717.13;;;13.03;61.49
6218;BME280;3142;48.206;11.550;2022-11-06T10:57:15;95714.41;;;12.85;60.90
6218;BME280;3142;48.206;11.550;2022-11-06T10:59:46;95719.88;;;12.84;62.17
6218;BME280;3142;48.206;11.550;2022-11-06T11:02:22;95706.38;;;12.80;62.38
6218;BME280;3142;48.206;11.550;2022-11-06T11:04:49;95707.66;;;12.71;61.88
6218;BME280;3142;48.206;11.550;2022-11-06T11:07:16;95691.88;;;12.78;62.22
6218;BME280;3142;48.206;11.550;2022-11-06T11:09:44;95684.19;;;13.01;62.14
6218;BME280;3142;48.206;11.550;2022-11-06T11:12:20;95672.63;;;12.84;61.52
6218;BME280;3142;48.206;11.550;2022-11-06T11:15:03;95659.97;;;12.99;62.67
6218;BME280;3142;48.206;11.550;2022-11-06T11:17:30;95653.06;;;13.04;61.09
6218;BME280;3142;48.206;11.550;2022-11-06T11:19:57;95651.88;;;13.00;62.48
6218;BME280;3142;48.206;11.550;2022-11-06T11:22:24;95651.59;;;13.09;62.12
6218;BME280;3142;48.206;11.550;2022-11-06T11:25:00;95646.63;;;13.00;61.26
6218;BME280;3142;48.206;11.550;2022-11-06T11:27:28;95641.38;;;13.00;61.64
6218;BME280;3142;48.206;11.550;2022-11-06T11:29:55;95629.59;;;12.85;60.09
6218;BME280;3142;48.206;11.550;2022-11-06T11:32:22;95633.72;;;12.74;60.86
6218;BME280;3142;48.206;11.550;2022-11-06T11:34:52;95621.78;;;12.78;61.11
6218;BME280;3142;48.206;11.550;2022-11-06T11:37:23;95640.47;;;12.88;61.06
6218;BME280;3142;48.206;11.550;2022-11-06T11:39:50;95629.31;;;13.18;61.50
6218;BME280;3142;48.206;11.550;2022-11-06T11:42:26;95628.03;;;13.45;61.80
6218;BME280;3142;48.206;11.550;2022-11-06T11:45:13;95627.59;;;13.48;61.67
6218;BME280;3142;48.206;11.550;2022-11-06T11:47:41;95634.22;;;13.69;60.89
6218;BME280;3142;48.206;11.550;2022-11-06T11:50:24;95622.38;;;13.42;56.34
6218;BME280;3142;48.206;11.550;2022-11-06T11:52:53;95622.94;;;13.07;56.45
6218;BME280;3142;48.206;11.550;2022-11-06T11:55:24;95609.50;;;12.72;58.99
6218;BME280;3142;48.206;11.550;2022-11-06T11:57:54;95617.25;;;12.60;59.02
6218;BME280;3142;48.206;11.550;2022-11-06T12:00:22;95607.53;;;12.42;59.26
6218;BME280;3142;48.206;11.550;2022-11-06T12:02:51;95603.94;;;12.37;59.78
6218;BME280;3142;48.206;11.550;2022-11-06T12:05:22;95595.06;;;12.38;59.50
6218;BME280;3142;48.206;11.550;2022-11-06T12:07:51;95585.38;;;12.32;60.24
6218;BME280;3142;48.206;11.550;2022-11-06T12:10:25;95589.22;;;12.36;60.56
6218;BME280;3142;48.206;11.550;2022-11-06T12:12:54;95592.78;;;12.41;61.31
6218;BME280;3142;48.206;11.550;2022-11-06T12:15:26;95584.78;;;12.36;61.67
6218;BME280;3142;48.206;11.550;2022-11-06T12:17:58;95589.59;;;12.39;61.33
6218;BME280;3142;48.206;11.550;2022-11-06T12:20:37;95580.13;;;12.38;61.65
6218;BME280;3142;48.206;11.550;2022-11-06T12:23:10;95590.94;;;12.49;61.62
6218;BME280;3142;48.206;11.550;2022-11-06T12:25:41;95592.38;;;12.44;62.12
6218;BME280;3142;48.206;11.550;2022-11-06T12:28:13;95592.94;;;12.46;62.20
6218;BME280;3142;48.206;11.550;2022-11-06T12:30:45;95588.09;;;12.50;62.41
6218;BME280;3142;48.206;11.550;2022-11-06T12:33:16;95583.00;;;12.55;62.35
6218;BME280;3142;48.206;11.550;2022-11-06T12:35:47;95574.88;;;12.63;62.14
6218;BME280;3142;48.206;11.550;2022-11-06T12:38:24;95572.94;;;12.52;62.42
6218;BME280;3142;48.206;11.550;2022-11-06T12:40:56;95569.19;;;12.41;62.46
6218;BME280;3142;48.206;11.550;2022-11-06T12:43:30;95580.53;;;12.35;63.31
6218;BME280;3142;48.206;11.550;2022-11-06T12:46:09;95578.97;;;12.28;62.74
6218;BME280;3142;48.206;11.550;2022-11-06T12:49:07;95575.31;;;12.35;63.03
6218;BME280;3142;48.206;11.550;2022-11-06T12:51:46;95583.38;;;12.59;62.77
6218;BME280;3142;48.206;11.550;2022-11-06T12:54:27;95586.69;;;12.72;62.39
6218;BME280;3142;48.206;11.550;2022-11-06T12:57:03;95593.19;;;12.88;63.10
6218;BME280;3142;48.206;11.550;2022-11-06T12:59:43;95590.53;;;12.95;62.05
6218;BME280;3142;48.206;11.550;2022-11-06T13:02:33;95604.22;;;12.97;62.67
6218;BME280;3142;48.206;11.550;2022-11-06T13:05:12;95600.00;;;13.14;62.78
6218;BME280;3142;48.206;11.550;2022-11-06T13:08:03;95592.69;;;13.23;62.57
6218;BME280;3142;48.206;11.550;2022-11-06T13:10:41;95573.56;;;13.34;61.62
6218;BME280;3142;48.206;11.550;2022-11-06T13:13:24;95562.63;;;13.19;61.45
6218;BME280;3142;48.206;11.550;2022-11-06T13:15:59;95561.78;;;13.00;62.08
6218;BME280;3142;48.206;11.550;2022-11-06T13:18:31;95548.56;;;12.88;61.95
6218;BME280;3142;48.206;11.550;2022-11-06T13:21:03;95545.94;;;12.88;62.34
6218;BME280;3142;48.206;11.550;2022-11-06T13:23:36;95543.78;;;13.03;62.85
6218;BME280;3142;48.206;11.550;2022-11-06T13:26:08;95533.53;;;13.14;63.36
6218;BME280;3142;48.206;11.550;2022-11-06T13:28:40;95526.34;;;13.09;62.89
6218;BME280;3142;48.206;11.550;2022-11-06T13:31:11;95519.13;;;13.04;63.65
6218;BME280;3142;48.206;11.550;2022-11-06T13:33:42;95519.97;;;12.98;63.75
6218;BME280;3142;48.206;11.550;2022-11-06T13:36:12;95513.56;;;12.94;62.61